createdAt,value
2023-04-14T00:01:50.662Z,10.80
2023-04-14T00:04:20.216Z,10.70
2023-04-14T00:06:49.255Z,10.70
2023-04-14T00:09:18.251Z,10.70
2023-04-14T00:11:49.684Z,10.70
2023-04-14T00:14:18.885Z,10.70
2023-04-14T00:16:47.947Z,10.60
2023-04-14T00:19:17.034Z,10.60
2023-04-14T00:21:46.014Z,10.60
2023-04-14T00:24:15.271Z,10.50
2023-04-14T00:26:44.226Z,10.50
2023-04-14T00:29:14.700Z,10.50
2023-04-14T00:31:44.372Z,10.40
2023-04-14T00:34:13.676Z,10.40
2023-04-14T00:36:42.634Z,10.30
2023-04-14T00:39:11.540Z,10.30
2023-04-14T00:41:40.633Z,10.20
2023-04-14T00:44:09.562Z,10.20
2023-04-14T00:46:42.189Z,10.20
2023-04-14T00:49:11.516Z,10.10
2023-04-14T00:51:40.598Z,10.10
2023-04-14T00:54:11.136Z,10.10
2023-04-14T00:56:40.960Z,10.10
2023-04-14T00:59:11.401Z,10.10
2023-04-14T01:01:48.056Z,10.10
2023-04-14T01:04:23.338Z,10.00
2023-04-14T01:06:54.326Z,10.10
2023-04-14T01:09:41.614Z,10.00
2023-04-14T01:12:23.284Z,10.00
2023-04-14T01:15:06.977Z,10.00
2023-04-14T01:17:45.724Z,10.00
2023-04-14T01:20:24.447Z,10.00
2023-04-14T01:22:59.437Z,9.90
2023-04-14T01:25:56.788Z,9.90
2023-04-14T01:28:43.940Z,9.90
2023-04-14T01:31:34.052Z,9.90
2023-04-14T01:34:26.813Z,9.90
2023-04-14T01:37:03.844Z,9.90
2023-04-14T01:39:37.235Z,9.90
2023-04-14T01:42:10.674Z,9.80
2023-04-14T01:44:42.089Z,9.80
2023-04-14T01:47:16.925Z,9.80
2023-04-14T01:49:49.030Z,9.80
2023-04-14T01:52:20.649Z,9.80
2023-04-14T01:54:53.876Z,9.80
2023-04-14T01:57:24.343Z,9.80
2023-04-14T01:59:55.290Z,9.90
2023-04-14T02:02:27.783Z,9.90
2023-04-14T02:04:58.553Z,9.90
2023-04-14T02:07:29.628Z,10.00
2023-04-14T02:10:00.046Z,10.00
2023-04-14T02:12:31.784Z,10.00
2023-04-14T02:15:03.047Z,10.00
2023-04-14T02:17:36.315Z,10.00
2023-04-14T02:20:07.562Z,10.00
2023-04-14T02:22:36.750Z,10.00
2023-04-14T02:25:06.062Z,9.90
2023-04-14T02:27:39.706Z,9.90
2023-04-14T02:30:13.881Z,9.90
2023-04-14T02:32:51.252Z,9.90
2023-04-14T02:35:27.110Z,9.90
2023-04-14T02:38:05.546Z,9.80
2023-04-14T02:40:39.729Z,9.80
2023-04-14T02:43:14.736Z,9.80
2023-04-14T02:45:47.262Z,9.80
2023-04-14T02:48:20.035Z,9.70
2023-04-14T02:50:52.114Z,9.80
2023-04-14T02:53:26.856Z,9.70
2023-04-14T02:56:19.201Z,9.80
2023-04-14T02:58:50.529Z,9.80
2023-04-14T03:01:21.539Z,9.80
2023-04-14T03:03:56.421Z,9.80
2023-04-14T03:06:27.638Z,9.80
2023-04-14T03:08:59.431Z,9.80
2023-04-14T03:11:30.298Z,9.80
2023-04-14T03:14:00.306Z,9.80
2023-04-14T03:16:31.362Z,9.70
2023-04-14T03:19:05.487Z,9.70
2023-04-14T03:21:55.502Z,9.70
2023-04-14T03:24:27.607Z,9.70
2023-04-14T03:27:02.608Z,9.70
2023-04-14T03:29:38.072Z,9.70
2023-04-14T03:32:08.770Z,9.60
2023-04-14T03:34:46.727Z,9.60
2023-04-14T03:37:19.009Z,9.60
2023-04-14T03:39:52.224Z,9.70
2023-04-14T03:42:22.712Z,9.70
2023-04-14T03:44:54.506Z,9.70
2023-04-14T03:47:24.904Z,9.80
2023-04-14T03:49:59.887Z,9.80
2023-04-14T03:52:32.651Z,9.90
2023-04-14T03:55:06.784Z,9.90
2023-04-14T03:57:40.891Z,10.00
2023-04-14T04:00:14.249Z,10.10
2023-04-14T04:03:02.650Z,10.20
2023-04-14T04:05:33.921Z,10.30
2023-04-14T04:08:04.649Z,10.40
2023-04-14T04:10:36.270Z,10.50
2023-04-14T04:13:08.609Z,10.50
2023-04-14T04:15:39.304Z,10.50
2023-04-14T04:18:10.039Z,10.60
2023-04-14T04:20:43.779Z,10.60
2023-04-14T04:23:13.831Z,10.60
2023-04-14T04:25:43.642Z,10.70
2023-04-14T04:28:31.075Z,10.70
2023-04-14T04:31:01.820Z,10.80
2023-04-14T04:33:32.888Z,10.80
2023-04-14T04:36:06.735Z,10.90
2023-04-14T04:38:41.338Z,11.00
2023-04-14T04:41:21.785Z,11.10
2023-04-14T04:43:51.958Z,11.30
2023-04-14T04:46:37.727Z,11.50
2023-04-14T04:49:06.921Z,11.60
2023-04-14T04:51:37.702Z,11.80
2023-04-14T04:54:07.246Z,12.00
2023-04-14T04:56:36.529Z,12.20
2023-04-14T04:59:06.075Z,12.40
2023-04-14T05:01:35.291Z,12.50
2023-04-14T05:04:04.444Z,12.60
2023-04-14T05:06:38.597Z,12.80
2023-04-14T05:09:07.927Z,12.90
2023-04-14T05:11:37.086Z,13.00
2023-04-14T05:14:26.297Z,13.20
2023-04-14T05:16:57.159Z,13.30
2023-04-14T05:19:26.210Z,13.50
2023-04-14T05:21:57.608Z,13.60
2023-04-14T05:24:26.764Z,13.80
2023-04-14T05:27:13.047Z,14.00
2023-04-14T05:29:43.593Z,14.40
2023-04-14T05:32:14.694Z,14.60
2023-04-14T05:34:46.109Z,14.80
2023-04-14T05:37:17.190Z,15.10
2023-04-14T05:39:46.495Z,15.30
2023-04-14T05:42:15.701Z,15.60
2023-04-14T05:44:51.766Z,15.70
2023-04-14T05:47:22.091Z,15.90
2023-04-14T05:50:00.049Z,16.00
2023-04-14T05:52:31.011Z,16.10
2023-04-14T05:55:00.029Z,16.20
2023-04-14T05:57:28.994Z,16.20
2023-04-14T05:59:58.410Z,16.30
2023-04-14T06:02:31.942Z,16.40
2023-04-14T06:05:02.525Z,16.60
2023-04-14T06:07:33.066Z,16.80
2023-04-14T06:10:02.388Z,16.90
2023-04-14T06:12:42.490Z,17.10
2023-04-14T06:15:11.858Z,17.30
2023-04-14T06:17:41.234Z,17.40
2023-04-14T06:20:16.241Z,17.60
2023-04-14T06:22:47.940Z,17.70
2023-04-14T06:25:17.174Z,17.80
2023-04-14T06:27:46.002Z,17.90
2023-04-14T06:30:17.318Z,18.10
2023-04-14T06:32:46.746Z,18.20
2023-04-14T06:35:32.259Z,18.40
2023-04-14T06:38:03.321Z,18.60
2023-04-14T06:40:32.375Z,18.70
2023-04-14T06:43:02.530Z,18.90
2023-04-14T06:45:31.410Z,19.00
2023-04-14T06:48:00.551Z,19.10
2023-04-14T06:50:29.452Z,19.20
2023-04-14T06:52:58.372Z,19.20
2023-04-14T06:55:30.418Z,19.30
2023-04-14T06:58:01.066Z,19.30
2023-04-14T07:00:30.439Z,19.30
2023-04-14T07:02:59.444Z,19.50
2023-04-14T07:05:28.451Z,19.60
2023-04-14T07:07:57.636Z,19.60
2023-04-14T07:10:28.120Z,19.70
2023-04-14T07:12:57.048Z,19.70
2023-04-14T07:15:54.107Z,19.80
2023-04-14T07:18:26.538Z,19.90
2023-04-14T07:20:55.920Z,20.10
2023-04-14T07:23:24.863Z,20.20
2023-04-14T07:25:56.842Z,20.30
2023-04-14T07:28:27.053Z,20.40
2023-04-14T07:30:56.964Z,20.60
2023-04-14T07:33:27.223Z,20.80
2023-04-14T07:36:01.923Z,21.00
2023-04-14T07:38:38.372Z,21.20
2023-04-14T07:41:09.993Z,21.30
2023-04-14T07:43:40.266Z,21.50
2023-04-14T07:46:28.045Z,21.70
2023-04-14T07:48:57.144Z,22.00
2023-04-14T07:51:26.310Z,22.10
2023-04-14T07:53:59.906Z,22.30
2023-04-14T07:56:34.663Z,22.50
2023-04-14T07:59:09.076Z,22.60
2023-04-14T08:01:39.015Z,22.60
2023-04-14T08:04:08.387Z,22.70
2023-04-14T08:06:37.885Z,22.80
2023-04-14T08:09:07.202Z,22.80
2023-04-14T08:11:37.603Z,22.80
2023-04-14T08:14:06.661Z,22.90
2023-04-14T08:16:37.000Z,22.90
2023-04-14T08:19:06.485Z,23.00
2023-04-14T08:21:35.474Z,23.20
2023-04-14T08:24:06.701Z,23.20
2023-04-14T08:26:37.228Z,23.30
2023-04-14T08:29:06.356Z,23.40
2023-04-14T08:31:35.455Z,23.40
2023-04-14T08:34:04.670Z,23.40
2023-04-14T08:36:33.655Z,23.40
2023-04-14T08:39:02.726Z,23.40
2023-04-14T08:41:36.581Z,23.50
2023-04-14T08:44:05.713Z,23.50
2023-04-14T08:46:35.087Z,23.60
2023-04-14T08:49:06.670Z,23.60
2023-04-14T08:51:37.572Z,23.70
2023-04-14T08:54:25.355Z,23.70
2023-04-14T08:56:58.887Z,23.80
2023-04-14T08:59:30.316Z,23.80
2023-04-14T09:02:07.210Z,23.90
2023-04-14T09:04:55.490Z,23.90
2023-04-14T09:07:24.694Z,24.00
2023-04-14T09:09:53.858Z,24.10
2023-04-14T09:12:27.506Z,24.20
2023-04-14T09:14:58.363Z,24.30
2023-04-14T09:17:29.900Z,24.40
2023-04-14T09:20:36.434Z,24.50
2023-04-14T09:22:48.574Z,24.60
2023-04-14T09:25:20.029Z,24.70
2023-04-14T09:27:51.571Z,24.80
2023-04-14T09:30:21.077Z,24.90
2023-04-14T09:32:53.800Z,25.00
2023-04-14T09:35:23.140Z,25.10
2023-04-14T09:37:52.292Z,25.20
2023-04-14T09:40:31.326Z,25.30
2023-04-14T09:43:02.928Z,25.50
2023-04-14T09:45:48.049Z,25.60
2023-04-14T09:48:17.130Z,25.70
2023-04-14T09:51:00.136Z,25.70
2023-04-14T09:53:33.028Z,25.80
2023-04-14T09:56:05.197Z,25.80
2023-04-14T09:58:37.770Z,26.00
2023-04-14T10:01:13.053Z,26.00
2023-04-14T10:03:43.638Z,26.20
2023-04-14T10:06:21.074Z,26.30
2023-04-14T10:08:51.823Z,26.40
2023-04-14T10:11:22.055Z,26.50
2023-04-14T10:14:11.039Z,26.60
2023-04-14T10:16:40.214Z,26.70
2023-04-14T10:19:09.218Z,26.80
2023-04-14T10:21:38.098Z,27.00
2023-04-14T10:24:07.420Z,27.00
2023-04-14T10:26:37.412Z,27.10
2023-04-14T10:29:06.737Z,27.10
2023-04-14T10:31:42.925Z,27.20
2023-04-14T10:34:14.242Z,27.20
2023-04-14T10:36:43.925Z,27.30
2023-04-14T10:39:14.275Z,27.30
2023-04-14T10:41:50.472Z,27.20
2023-04-14T10:44:27.305Z,27.40
2023-04-14T10:46:58.156Z,27.40
2023-04-14T10:49:31.958Z,27.40
2023-04-14T10:52:03.432Z,27.50
2023-04-14T10:54:53.697Z,27.70
2023-04-14T10:57:24.471Z,27.90
2023-04-14T10:59:57.392Z,28.00
2023-04-14T11:02:30.343Z,28.20
2023-04-14T11:05:01.287Z,28.40
2023-04-14T11:07:31.493Z,28.60
2023-04-14T11:10:05.366Z,29.00
2023-04-14T11:12:44.765Z,29.30
2023-04-14T11:15:14.239Z,29.60
2023-04-14T11:17:45.566Z,29.80
2023-04-14T11:20:18.386Z,30.00
2023-04-14T11:22:48.907Z,30.30
2023-04-14T11:25:23.026Z,30.50
2023-04-14T11:27:53.465Z,30.90
2023-04-14T11:30:23.089Z,31.00
2023-04-14T11:32:54.951Z,31.10
2023-04-14T11:35:26.440Z,31.00
2023-04-14T11:37:56.263Z,31.00
2023-04-14T11:40:26.702Z,31.00
2023-04-14T11:42:57.473Z,31.00
2023-04-14T11:45:45.380Z,31.10
2023-04-14T11:48:18.513Z,31.20
2023-04-14T11:51:06.477Z,31.30
2023-04-14T11:53:35.460Z,31.40
2023-04-14T11:56:04.613Z,31.60
2023-04-14T11:58:34.092Z,31.70
2023-04-14T12:01:03.061Z,31.70
2023-04-14T12:03:35.880Z,31.70
2023-04-14T12:06:05.909Z,31.50
2023-04-14T12:08:35.212Z,31.50
2023-04-14T12:11:14.825Z,31.40
2023-04-14T12:13:44.716Z,31.20
2023-04-14T12:16:15.234Z,31.10
2023-04-14T12:18:46.173Z,30.90
2023-04-14T12:21:34.144Z,30.70
2023-04-14T12:24:03.122Z,30.50
2023-04-14T12:26:32.803Z,30.20
2023-04-14T12:29:02.529Z,30.00
2023-04-14T12:31:32.090Z,29.80
2023-04-14T12:34:06.694Z,29.60
2023-04-14T12:39:08.276Z,29.40
2023-04-14T12:41:42.220Z,29.30
2023-04-14T12:44:16.923Z,29.20
2023-04-14T12:46:50.192Z,29.20
2023-04-14T12:49:34.730Z,29.30
2023-04-14T12:52:04.091Z,29.30
2023-04-14T12:54:53.220Z,29.40
2023-04-14T12:57:22.975Z,29.50
2023-04-14T12:59:52.172Z,29.60
2023-04-14T13:02:24.640Z,29.60
2023-04-14T13:04:55.335Z,29.70
2023-04-14T13:07:24.690Z,29.60
2023-04-14T13:09:54.323Z,29.60
2023-04-14T13:12:23.360Z,29.60
2023-04-14T13:14:53.239Z,29.60
2023-04-14T13:17:22.428Z,29.50
2023-04-14T13:19:51.712Z,29.30
2023-04-14T13:22:22.045Z,29.20
2023-04-14T13:24:51.971Z,28.90
2023-04-14T13:27:21.432Z,28.70
2023-04-14T13:29:50.758Z,28.50
2023-04-14T13:32:19.915Z,28.20
2023-04-14T13:34:49.202Z,27.90
2023-04-14T13:37:19.598Z,27.70
2023-04-14T13:39:50.310Z,27.60
2023-04-14T13:42:19.223Z,27.50
2023-04-14T13:44:48.349Z,27.40
2023-04-14T13:47:19.040Z,27.40
2023-04-14T13:49:48.035Z,27.40
2023-04-14T13:52:17.249Z,27.40
2023-04-14T13:54:46.206Z,27.40
2023-04-14T13:57:16.698Z,27.40
2023-04-14T13:59:46.333Z,27.30
2023-04-14T14:02:15.725Z,27.30
2023-04-14T14:04:44.970Z,27.30
2023-04-14T14:07:14.100Z,27.30
2023-04-14T14:09:44.560Z,27.20
2023-04-14T14:12:17.277Z,27.20
2023-04-14T14:14:47.238Z,27.10
2023-04-14T14:17:17.182Z,27.10
2023-04-14T14:19:46.198Z,27.10
2023-04-14T14:22:15.116Z,27.10
2023-04-14T14:24:44.084Z,27.00
2023-04-14T14:27:13.078Z,27.00
2023-04-14T14:29:43.530Z,26.90
2023-04-14T14:32:12.617Z,26.80
2023-04-14T14:34:41.540Z,26.70
2023-04-14T14:37:10.487Z,26.70
2023-04-14T14:39:39.672Z,26.70
2023-04-14T14:42:11.986Z,26.60
2023-04-14T14:44:42.496Z,26.60
2023-04-14T14:47:11.510Z,26.50
2023-04-14T14:49:46.196Z,26.40
2023-04-14T14:52:29.552Z,26.30
2023-04-14T14:54:58.603Z,26.20
2023-04-14T14:57:28.654Z,26.00
2023-04-14T14:59:59.187Z,25.90
2023-04-14T15:02:28.360Z,25.80
2023-04-14T15:04:57.483Z,25.60
2023-04-14T15:07:26.485Z,25.50
2023-04-14T15:09:55.668Z,25.40
2023-04-14T15:12:24.649Z,25.30
2023-04-14T15:14:53.684Z,25.30
2023-04-14T15:17:24.392Z,25.20
2023-04-14T15:19:53.555Z,25.20
2023-04-14T15:22:22.723Z,25.10
2023-04-14T15:24:51.822Z,25.10
2023-04-14T15:27:20.789Z,25.10
2023-04-14T15:29:49.796Z,25.00
2023-04-14T15:32:24.501Z,25.00
2023-04-14T15:34:55.948Z,24.90
2023-04-14T15:37:26.342Z,24.80
2023-04-14T15:39:55.381Z,24.70
2023-04-14T15:42:24.357Z,24.60
2023-04-14T15:44:53.382Z,24.50
2023-04-14T15:47:22.381Z,24.40
2023-04-14T15:50:00.616Z,24.20
2023-04-14T15:52:40.499Z,24.10
2023-04-14T15:55:12.048Z,23.90
2023-04-14T15:57:41.087Z,23.80
2023-04-14T16:00:11.228Z,23.70
2023-04-14T16:02:46.216Z,23.60
2023-04-14T16:05:15.606Z,23.40
2023-04-14T16:07:46.773Z,23.40
2023-04-14T16:10:15.921Z,23.30
2023-04-14T16:12:45.021Z,23.20
2023-04-14T16:15:14.163Z,23.20
2023-04-14T16:17:43.796Z,23.10
2023-04-14T16:20:13.819Z,23.10
2023-04-14T16:22:42.709Z,23.10
2023-04-14T16:25:13.421Z,22.90
2023-04-14T16:27:42.940Z,22.80
2023-04-14T16:30:13.126Z,22.80
2023-04-14T16:32:42.224Z,22.70
2023-04-14T16:35:12.119Z,22.60
2023-04-14T16:37:41.260Z,22.50
2023-04-14T16:40:12.821Z,22.40
2023-04-14T16:42:41.846Z,22.30
2023-04-14T16:45:11.544Z,22.20
2023-04-14T16:47:40.930Z,22.10
2023-04-14T16:50:10.555Z,22.00
2023-04-14T16:52:39.453Z,21.90
2023-04-14T16:55:09.146Z,21.80
2023-04-14T16:57:39.526Z,21.70
2023-04-14T17:00:12.413Z,21.60
2023-04-14T17:02:42.945Z,21.50
2023-04-14T17:05:16.374Z,21.40
2023-04-14T17:07:47.094Z,21.30
2023-04-14T17:10:16.486Z,21.20
2023-04-14T17:12:47.448Z,21.00
2023-04-14T17:15:17.451Z,20.90
2023-04-14T17:17:46.753Z,20.80
2023-04-14T17:20:16.362Z,20.70
2023-04-14T17:23:04.164Z,20.60
2023-04-14T17:25:35.885Z,20.50
2023-04-14T17:28:11.420Z,20.40
2023-04-14T17:30:40.850Z,20.30
2023-04-14T17:33:10.830Z,20.20
2023-04-14T17:35:39.972Z,20.10
2023-04-14T17:38:09.173Z,20.10
2023-04-14T17:40:38.153Z,20.00
2023-04-14T17:43:08.758Z,19.90
2023-04-14T17:45:40.298Z,19.90
2023-04-14T17:48:09.791Z,19.80
2023-04-14T17:50:39.077Z,19.70
2023-04-14T17:53:09.131Z,19.60
2023-04-14T17:55:38.965Z,19.50
2023-04-14T17:58:10.402Z,19.50
2023-04-14T18:00:40.508Z,19.40
2023-04-14T18:03:09.818Z,19.30
2023-04-14T18:05:38.997Z,19.20
2023-04-14T18:08:08.455Z,19.20
2023-04-14T18:10:38.246Z,19.20
2023-04-14T18:13:09.899Z,19.10
2023-04-14T18:15:42.836Z,19.10
2023-04-14T18:18:12.018Z,19.10
2023-04-14T18:20:41.664Z,19.00
2023-04-14T18:23:10.850Z,19.00
2023-04-14T18:28:13.738Z,18.80
2023-04-14T18:30:42.883Z,18.60
2023-04-14T18:33:15.372Z,18.60
2023-04-14T18:35:44.544Z,18.50
2023-04-14T18:38:13.924Z,18.40
2023-04-14T18:40:42.920Z,18.30
2023-04-14T18:43:22.087Z,18.20
2023-04-14T18:45:51.742Z,18.20
2023-04-14T18:48:20.930Z,18.10
2023-04-14T18:50:57.582Z,18.00
2023-04-14T18:53:26.838Z,18.10
2023-04-14T18:55:55.895Z,18.10
2023-04-14T18:58:26.348Z,18.00
2023-04-14T19:00:55.534Z,18.00
2023-04-14T19:03:24.691Z,18.00
2023-04-14T19:05:55.564Z,17.90
2023-04-14T19:08:43.276Z,17.90
2023-04-14T19:11:12.454Z,17.80
2023-04-14T19:13:43.979Z,17.80
2023-04-14T19:16:14.043Z,17.80
2023-04-14T19:19:02.210Z,17.80
2023-04-14T19:21:32.204Z,17.80
2023-04-14T19:24:01.182Z,17.80
2023-04-14T19:26:31.033Z,17.80
2023-04-14T19:29:01.838Z,17.80
2023-04-14T19:31:31.566Z,17.80
2023-04-14T19:34:00.855Z,17.80
2023-04-14T19:36:32.519Z,17.80
2023-04-14T19:39:01.925Z,17.70
2023-04-14T19:41:31.125Z,17.60
2023-04-14T19:44:04.405Z,17.50
2023-04-14T19:46:35.893Z,17.40
2023-04-14T19:49:05.710Z,17.30
2023-04-14T19:51:36.876Z,17.30
2023-04-14T19:54:07.647Z,17.20
2023-04-14T19:56:37.120Z,17.20
2023-04-14T19:59:08.451Z,17.20
2023-04-14T20:01:38.604Z,17.10
2023-04-14T20:04:12.334Z,17.10
2023-04-14T20:06:43.071Z,17.10
2023-04-14T20:09:12.374Z,17.10
2023-04-14T20:11:41.296Z,17.10
2023-04-14T20:14:11.659Z,17.00
2023-04-14T20:16:40.889Z,17.00
2023-04-14T20:19:10.210Z,17.00
2023-04-14T20:21:40.010Z,17.00
2023-04-14T20:24:08.998Z,17.00
2023-04-14T20:26:42.791Z,17.00
2023-04-14T20:29:13.470Z,17.00
2023-04-14T20:31:44.419Z,16.90
2023-04-14T20:34:13.692Z,17.00
2023-04-14T20:36:45.134Z,17.00
2023-04-14T20:39:14.136Z,16.90
2023-04-14T20:41:43.249Z,17.00
2023-04-14T20:44:17.317Z,16.90
2023-04-14T20:46:46.910Z,16.90
2023-04-14T20:49:15.846Z,16.90
2023-04-14T20:51:47.143Z,16.90
2023-04-14T20:54:16.635Z,16.80
2023-04-14T20:56:45.750Z,16.80
2023-04-14T20:59:16.801Z,16.80
2023-04-14T21:01:48.657Z,16.70
2023-04-14T21:04:19.479Z,16.70
2023-04-14T21:06:49.374Z,16.60
2023-04-14T21:09:18.876Z,16.60
2023-04-14T21:11:47.979Z,16.40
2023-04-14T21:15:30.528Z,16.50
2023-04-14T21:17:28.003Z,16.40
2023-04-14T21:19:57.725Z,16.30
2023-04-14T21:22:58.778Z,16.20
2023-04-14T21:25:33.933Z,16.20
2023-04-14T21:28:05.330Z,16.10
2023-04-14T21:30:38.490Z,16.10
2023-04-14T21:33:08.950Z,16.00
2023-04-14T21:35:38.236Z,16.00
2023-04-14T21:38:07.846Z,15.90
2023-04-14T21:40:37.445Z,15.90
2023-04-14T21:43:08.109Z,15.90
2023-04-14T21:45:39.782Z,15.80
2023-04-14T21:48:09.081Z,15.80
2023-04-14T21:50:40.354Z,15.70
2023-04-14T21:53:10.886Z,15.70
2023-04-14T21:55:40.726Z,15.70
2023-04-14T21:58:11.021Z,15.60
2023-04-14T22:00:42.537Z,15.60
2023-04-14T22:03:12.204Z,15.50
2023-04-14T22:05:41.440Z,15.50
2023-04-14T22:08:10.726Z,15.40
2023-04-14T22:10:43.833Z,15.40
2023-04-14T22:13:13.267Z,15.40
2023-04-14T22:15:45.052Z,15.40
2023-04-14T22:18:14.106Z,15.40
2023-04-14T22:20:43.199Z,15.40
2023-04-14T22:23:12.526Z,15.40
2023-04-14T22:25:41.619Z,15.50
2023-04-14T22:28:11.817Z,15.50
2023-04-14T22:31:01.310Z,15.50
2023-04-14T22:33:30.445Z,15.50
2023-04-14T22:36:01.623Z,15.40
2023-04-14T22:38:31.095Z,15.40
2023-04-14T22:41:00.171Z,15.50
2023-04-14T22:43:29.997Z,15.30
2023-04-14T22:46:00.615Z,15.20
2023-04-14T22:48:29.604Z,15.20
2023-04-14T22:50:58.617Z,15.20
2023-04-14T22:53:30.589Z,15.10
2023-04-14T22:55:59.561Z,15.10
2023-04-14T22:58:32.709Z,15.10
2023-04-14T23:01:12.039Z,15.10
2023-04-14T23:03:51.272Z,15.20
2023-04-14T23:06:28.857Z,15.20
2023-04-14T23:08:57.985Z,15.20
2023-04-14T23:11:27.323Z,15.20
2023-04-14T23:13:56.851Z,15.20
2023-04-14T23:16:27.862Z,15.20
2023-04-14T23:18:58.361Z,15.30
2023-04-14T23:21:28.265Z,15.10
2023-04-14T23:23:58.326Z,15.30
2023-04-14T23:26:28.722Z,15.30
2023-04-14T23:28:58.020Z,15.30
2023-04-14T23:31:29.002Z,15.30
2023-04-14T23:33:57.988Z,15.30
2023-04-14T23:36:27.011Z,15.30
2023-04-14T23:38:56.347Z,15.30
2023-04-14T23:41:25.635Z,15.20
2023-04-14T23:43:54.798Z,15.20
2023-04-14T23:46:24.043Z,15.10
2023-04-14T23:48:54.594Z,15.10
2023-04-14T23:51:24.787Z,15.10
2023-04-14T23:53:53.903Z,15.00
2023-04-14T23:56:22.924Z,15.00
2023-04-14T23:58:52.289Z,14.90
